Time;durP1;ratioP1;P1;durP2;ratioP2;P2;SDS_P1;SDS_P2;PMS_P1;PMS_P2;Temp;Humidity;BMP_temperature;BMP_pressure;BME280_temperature;BME280_humidity;BME280_pressure;Samples;Min_cycle;Max_cycle;Signal;HPM_P1;HPM_P2
2021/01/22 03:35:37;;;;;;;5.97;2.90;;;5.00;99.90;;;;;;6270581;22;20460;-87
2021/01/22 05:51:06;;;;;;;9.20;4.73;;;4.80;99.90;;;;;;6251189;22;20446;-85
2021/01/22 06:41:46;;;;;;;10.97;4.20;;;4.80;99.90;;;;;;6215165;22;20462;31
2021/01/22 06:44:20;;;;;;;10.33;4.57;;;4.80;99.90;;;;;;6190953;23;20433;-94
2021/01/22 06:46:46;;;;;;;9.57;4.00;;;4.80;99.90;;;;;;6191110;23;20465;-95
2021/01/22 06:49:13;;;;;;;10.70;5.20;;;4.80;99.90;;;;;;6192055;23;20412;-93
2021/01/22 06:51:39;;;;;;;10.23;4.27;;;4.90;99.90;;;;;;6191208;23;20406;-94
2021/01/22 06:57:21;;;;;;;10.70;5.70;;;4.80;99.90;;;;;;6204719;23;20418;-94
2021/01/22 07:13:02;;;;;;;14.33;6.50;;;4.70;99.90;;;;;;6169847;23;20404;-94
2021/01/22 07:28:26;;;;;;;12.53;6.07;;;4.80;99.90;;;;;;6205155;23;20454;-95
2021/01/22 07:30:53;;;;;;;15.30;5.67;;;4.70;99.90;;;;;;6200925;23;20408;-94
2021/01/22 07:39:13;;;;;;;11.17;5.90;;;4.70;99.90;;;;;;6262898;23;20403;-94
2021/01/22 07:41:39;;;;;;;14.70;6.43;;;4.70;99.90;;;;;;6263833;23;20403;-95
2021/01/22 07:44:07;;;;;;;15.57;5.93;;;4.60;99.90;;;;;;6273684;22;20433;-94
2021/01/22 07:46:45;;;;;;;11.00;6.00;;;4.70;99.90;;;;;;6297311;22;20442;-95
2021/01/22 07:49:57;;;;;;;12.87;6.93;;;4.60;99.90;;;;;;6297672;22;20455;-95
2021/01/22 07:52:24;;;;;;;17.40;6.67;;;4.70;99.90;;;;;;6282252;22;20406;-94
2021/01/22 08:01:37;;;;;;;8.83;5.10;;;4.60;99.90;;;;;;6246527;22;20402;-94
2021/01/22 08:16:21;;;;;;;8.57;5.30;;;4.60;99.90;;;;;;6236524;22;20461;-94
2021/01/22 08:22:40;;;;;;;13.90;5.10;;;4.80;99.90;;;;;;6256793;23;20394;-96
2021/01/22 08:25:14;;;;;;;11.27;5.57;;;4.80;99.90;;;;;;6257392;22;20802;-96
2021/01/22 08:27:42;;;;;;;16.08;5.55;;;4.70;99.90;;;;;;6249833;23;20389;-94
2021/01/22 08:30:09;;;;;;;9.07;4.90;;;4.70;99.90;;;;;;6249639;23;20602;-95
2021/01/22 08:32:39;;;;;;;11.60;5.50;;;4.70;99.90;;;;;;6249381;23;20426;-96
2021/01/22 08:35:10;;;;;;;8.40;4.70;;;4.70;99.90;;;;;;6249282;22;20194;-94
2021/01/22 08:37:37;;;;;;;10.20;5.23;;;4.70;99.90;;;;;;6249420;23;20459;-95
2021/01/22 08:40:05;;;;;;;11.97;5.40;;;4.70;99.90;;;;;;6249046;23;20427;-95
2021/01/22 08:42:32;;;;;;;10.63;5.57;;;4.70;99.90;;;;;;6255180;23;20407;-95
2021/01/22 08:44:59;;;;;;;12.20;5.67;;;4.80;99.90;;;;;;6251942;22;20485;-94
2021/01/22 08:47:27;;;;;;;14.03;5.70;;;4.80;99.90;;;;;;6250690;23;20522;-96
2021/01/22 08:49:59;;;;;;;12.63;5.33;;;4.80;99.90;;;;;;6250808;23;20506;-96
2021/01/22 08:52:26;;;;;;;13.63;5.70;;;4.90;99.90;;;;;;6250256;23;20399;-96
2021/01/22 08:54:54;;;;;;;8.53;6.20;;;4.80;99.90;;;;;;6249590;22;20441;-95
2021/01/22 08:57:23;;;;;;;14.73;6.10;;;4.90;99.90;;;;;;6253862;23;20173;-96
2021/01/22 08:59:52;;;;;;;8.33;4.97;;;4.90;99.90;;;;;;6256087;23;20177;-96
2021/01/22 09:02:41;;;;;;;13.37;5.63;;;4.90;99.90;;;;;;6252895;23;20407;-94
2021/01/22 09:05:14;;;;;;;7.27;4.77;;;5.00;99.90;;;;;;6253204;22;20193;-94
2021/01/22 09:07:41;;;;;;;14.20;5.13;;;5.00;99.90;;;;;;6254750;23;20522;-94
2021/01/22 09:10:27;;;;;;;9.30;5.00;;;5.10;99.90;;;;;;6255612;23;20174;-94
2021/01/22 09:12:53;;;;;;;9.83;5.03;;;5.30;99.90;;;;;;6254685;23;20446;-95
2021/01/22 09:15:20;;;;;;;8.87;5.17;;;5.20;99.90;;;;;;6253633;22;20236;-94
2021/01/22 09:17:49;;;;;;;11.83;5.20;;;5.10;99.90;;;;;;6257615;23;20383;-95
2021/01/22 09:21:02;;;;;;;13.30;5.30;;;5.20;99.90;;;;;;6261196;23;20169;-94
2021/01/22 09:23:31;;;;;;;13.67;8.57;;;5.30;99.90;;;;;;6243964;22;20210;-94
2021/01/22 09:26:03;;;;;;;14.60;6.60;;;5.20;99.90;;;;;;6194374;23;20656;-95
2021/01/22 09:28:30;;;;;;;20.80;7.53;;;5.20;99.90;;;;;;6192660;23;20222;-95
2021/01/22 09:30:57;;;;;;;11.43;6.10;;;5.20;99.90;;;;;;6192712;23;20178;-95
2021/01/22 09:33:23;;;;;;;11.23;5.87;;;5.20;99.90;;;;;;6192209;23;20171;-95
2021/01/22 09:35:52;;;;;;;15.33;5.77;;;5.30;99.90;;;;;;6192240;23;20199;-95
2021/01/22 09:38:18;;;;;;;9.53;5.03;;;5.10;99.90;;;;;;6192057;23;20195;-94
2021/01/22 09:40:45;;;;;;;7.20;4.60;;;5.20;99.90;;;;;;6192466;23;20175;-96
2021/01/22 09:43:33;;;;;;;11.57;4.90;;;5.20;99.90;;;;;;6192792;23;20258;-94
2021/01/22 09:45:59;;;;;;;7.93;5.10;;;5.30;99.90;;;;;;6195389;23;20203;-94
2021/01/22 09:48:26;;;;;;;8.87;4.67;;;5.30;99.90;;;;;;6193381;23;20175;-95
2021/01/22 09:51:52;;;;;;;9.57;5.10;;;5.30;99.90;;;;;;6196653;23;20226;-94
2021/01/22 09:54:33;;;;;;;9.43;4.97;;;5.30;99.90;;;;;;6200629;23;20191;-94
2021/01/22 09:56:59;;;;;;;8.27;4.57;;;5.30;99.90;;;;;;6189966;23;20171;-93
2021/01/22 09:59:26;;;;;;;10.20;4.83;;;5.30;99.90;;;;;;6188233;23;20171;-93
2021/01/22 10:01:52;;;;;;;14.80;5.37;;;5.40;99.90;;;;;;6188065;23;20249;-93
2021/01/22 10:04:18;;;;;;;7.97;4.23;;;5.60;99.90;;;;;;6190461;23;20199;-89
2021/01/22 10:06:45;;;;;;;8.23;3.80;;;5.60;99.90;;;;;;6192575;23;20803;-88
2021/01/22 10:09:11;;;;;;;12.33;4.70;;;5.70;99.90;;;;;;6193249;23;20554;-88
2021/01/22 10:11:40;;;;;;;10.63;6.90;;;6.00;99.90;;;;;;6192770;23;20188;-89
2021/01/22 10:14:10;;;;;;;13.20;7.13;;;6.10;99.90;;;;;;6192650;23;20218;-87
2021/01/22 10:16:37;;;;;;;10.17;6.70;;;6.30;99.90;;;;;;6192852;23;20609;-88
2021/01/22 10:19:04;;;;;;;13.63;5.30;;;6.40;99.90;;;;;;6192915;23;20163;-89
2021/01/22 10:21:32;;;;;;;10.30;5.63;;;6.40;99.90;;;;;;6191816;23;20167;-89
2021/01/22 10:23:59;;;;;;;9.17;4.47;;;6.50;99.90;;;;;;6217036;23;20206;-87
2021/01/22 10:26:25;;;;;;;9.83;4.40;;;6.60;99.90;;;;;;6218742;23;20273;-91
2021/01/22 10:28:53;;;;;;;10.53;4.90;;;6.60;99.90;;;;;;6218042;23;20167;-91
2021/01/22 10:31:20;;;;;;;13.37;5.37;;;6.50;99.90;;;;;;6192180;23;20201;-91
2021/01/22 10:33:47;;;;;;;6.87;3.53;;;6.40;99.90;;;;;;6218123;23;20163;-92
2021/01/22 10:36:14;;;;;;;15.00;4.93;;;6.30;99.90;;;;;;6191857;23;20190;-92
2021/01/22 10:38:41;;;;;;;9.60;5.07;;;6.30;99.90;;;;;;6218056;23;20499;-93
2021/01/22 10:41:08;;;;;;;14.47;5.00;;;6.20;99.90;;;;;;6191926;23;20224;-92
2021/01/22 10:43:34;;;;;;;11.77;4.00;;;6.20;99.90;;;;;;6217674;23;20253;-92
2021/01/22 10:46:02;;;;;;;6.10;3.90;;;6.20;99.90;;;;;;6217707;23;20197;-93
2021/01/22 10:48:29;;;;;;;7.60;4.57;;;6.20;99.90;;;;;;6217685;23;20636;-92
2021/01/22 10:50:56;;;;;;;11.73;5.13;;;6.20;99.90;;;;;;6217607;23;20190;-92
2021/01/22 10:53:23;;;;;;;13.37;5.97;;;6.20;99.90;;;;;;6217939;23;20590;-92
2021/01/22 10:55:50;;;;;;;17.50;4.50;;;6.40;99.90;;;;;;6217555;23;20195;-94
2021/01/22 10:58:16;;;;;;;6.97;4.00;;;6.30;99.90;;;;;;6218010;23;20598;-91
2021/01/22 11:00:43;;;;;;;8.73;4.63;;;6.40;99.90;;;;;;6217492;23;20181;-92
2021/01/22 11:03:10;;;;;;;9.40;4.00;;;6.60;99.90;;;;;;6217786;23;20163;-92
2021/01/22 11:05:36;;;;;;;7.80;3.93;;;6.50;99.90;;;;;;6216948;23;20203;-93
2021/01/22 11:08:03;;;;;;;7.03;4.83;;;6.50;99.90;;;;;;6217465;23;20167;-93
2021/01/22 11:10:30;;;;;;;8.97;4.43;;;6.50;99.90;;;;;;6218278;23;20167;-92
2021/01/22 11:12:57;;;;;;;10.13;3.87;;;6.60;99.90;;;;;;6217630;23;20245;-93
2021/01/22 11:15:23;;;;;;;6.23;3.40;;;6.60;99.90;;;;;;6217299;23;20191;-93
2021/01/22 11:17:50;;;;;;;9.60;5.20;;;6.70;99.90;;;;;;6217377;23;20202;-92
2021/01/22 11:20:18;;;;;;;8.17;4.20;;;6.80;99.90;;;;;;6217504;23;20220;-92
2021/01/22 11:22:46;;;;;;;9.47;3.50;;;6.80;99.90;;;;;;6217201;23;20222;-93
2021/01/22 11:25:13;;;;;;;6.57;3.17;;;6.90;99.90;;;;;;6217402;23;20191;-91
2021/01/22 11:27:40;;;;;;;10.30;3.50;;;6.80;99.90;;;;;;6217703;23;20167;-92
2021/01/22 11:30:08;;;;;;;7.87;3.30;;;6.80;99.90;;;;;;6217633;23;20523;-92
2021/01/22 11:32:35;;;;;;;8.37;4.53;;;6.90;99.90;;;;;;6217734;23;20221;-92
2021/01/22 11:35:02;;;;;;;15.07;6.57;;;6.80;99.90;;;;;;6217346;23;20194;-94
2021/01/22 11:37:29;;;;;;;8.23;4.77;;;6.80;99.90;;;;;;6217711;23;20175;-92
2021/01/22 11:39:56;;;;;;;9.70;5.20;;;6.80;99.90;;;;;;6218284;23;20196;-93
2021/01/22 11:42:22;;;;;;;12.20;4.60;;;6.90;99.90;;;;;;6217112;23;20177;-92
2021/01/22 11:44:49;;;;;;;8.33;3.03;;;7.10;99.90;;;;;;6217164;23;20277;-93
2021/01/22 11:47:15;;;;;;;7.40;3.03;;;7.10;99.90;;;;;;6217569;23;20248;-93
2021/01/22 11:49:42;;;;;;;6.00;2.90;;;7.10;99.90;;;;;;6217089;23;20241;-93
2021/01/22 11:52:10;;;;;;;10.30;3.43;;;7.10;99.90;;;;;;6217081;23;20171;-92
2021/01/22 11:54:37;;;;;;;16.53;3.10;;;7.10;99.90;;;;;;6217341;23;20205;-92
2021/01/22 11:57:05;;;;;;;11.03;3.20;;;7.30;99.90;;;;;;6221390;23;20185;-92
2021/01/22 11:59:32;;;;;;;15.57;3.40;;;7.20;99.90;;;;;;6223678;23;20225;-92
2021/01/22 12:01:58;;;;;;;5.63;2.40;;;7.20;99.90;;;;;;6218677;23;20166;-96
2021/01/22 12:04:25;;;;;;;6.33;3.03;;;7.30;99.90;;;;;;6216002;23;20194;-94
2021/01/22 12:06:51;;;;;;;13.10;2.97;;;7.40;99.90;;;;;;6190909;23;20656;-96
2021/01/22 12:09:18;;;;;;;9.57;2.80;;;7.50;99.90;;;;;;6190589;23;20500;-96
2021/01/22 12:11:46;;;;;;;9.23;3.20;;;7.30;99.90;;;;;;6216447;23;20539;-95
2021/01/22 12:14:12;;;;;;;8.75;3.17;;;7.30;99.90;;;;;;6190719;23;20394;-96
2021/01/22 12:16:39;;;;;;;10.97;2.87;;;7.40;99.90;;;;;;6217049;23;20671;-96
2021/01/22 12:19:06;;;;;;;10.37;3.10;;;7.40;99.90;;;;;;6219007;23;20233;-96
2021/01/22 12:21:33;;;;;;;9.07;3.13;;;7.30;99.90;;;;;;6217123;23;20218;-95
2021/01/22 12:24:07;;;;;;;7.40;2.93;;;7.30;99.90;;;;;;6223904;22;20202;-96
2021/01/22 12:26:50;;;;;;;7.50;2.60;;;7.30;99.90;;;;;;6238328;22;20213;-96
2021/01/22 12:32:41;;;;;;;8.97;2.77;;;7.10;99.90;;;;;;6232973;23;20226;-96
2021/01/22 12:35:09;;;;;;;4.07;2.37;;;7.20;99.90;;;;;;6234893;23;20231;-96
2021/01/22 12:37:36;;;;;;;5.67;2.30;;;7.30;99.90;;;;;;6207705;23;20516;-96
2021/01/22 12:40:04;;;;;;;8.27;2.80;;;7.30;99.90;;;;;;6231029;23;20177;-96
2021/01/22 12:42:37;;;;;;;6.50;2.83;;;7.30;99.90;;;;;;6230448;23;20187;-96
2021/01/22 12:45:13;;;;;;;9.93;2.47;;;7.40;99.90;;;;;;6231683;23;20200;-96
2021/01/22 14:25:19;;;;;;;10.47;2.63;;;8.00;99.90;;;;;;6245571;22;20210;-92
2021/01/22 14:38:20;;;;;;;9.53;2.93;;;8.10;99.90;;;;;;6243833;22;20209;-93
2021/01/22 14:52:35;;;;;;;8.73;2.60;;;8.20;99.90;;;;;;6257197;22;20213;-91
2021/01/22 15:00:33;;;;;;;12.70;3.63;;;8.10;99.90;;;;;;6248319;22;20522;-92
2021/01/22 15:17:08;;;;;;;6.43;2.53;;;7.90;99.90;;;;;;6242440;22;20210;-89
2021/01/22 15:19:34;;;;;;;7.43;2.60;;;7.80;99.90;;;;;;6218506;23;20586;-92
2021/01/22 15:22:00;;;;;;;9.87;2.70;;;7.80;99.90;;;;;;6217074;23;20202;-91
2021/01/22 15:24:27;;;;;;;11.97;3.33;;;7.70;99.90;;;;;;6238809;23;20230;-91
2021/01/22 15:26:53;;;;;;;7.27;2.50;;;7.70;99.90;;;;;;6248684;23;20699;-94
2021/01/22 15:29:20;;;;;;;12.48;3.53;;;7.70;99.90;;;;;;6245465;23;20789;-93
2021/01/22 15:31:47;;;;;;;9.27;3.17;;;7.80;99.90;;;;;;6247261;23;20187;-95
2021/01/22 15:34:14;;;;;;;11.10;3.47;;;7.80;99.90;;;;;;6247103;22;20269;-95
2021/01/22 15:36:41;;;;;;;9.40;3.50;;;7.70;99.90;;;;;;6248024;23;20605;-95
2021/01/22 15:39:09;;;;;;;11.37;3.37;;;7.60;99.90;;;;;;6247250;22;20249;-95
2021/01/22 15:41:35;;;;;;;8.87;2.90;;;7.70;99.90;;;;;;6248015;23;20220;-94
2021/01/22 15:44:02;;;;;;;7.37;3.63;;;7.60;99.90;;;;;;6248195;22;20261;-93
2021/01/22 15:46:30;;;;;;;5.30;3.13;;;7.50;99.90;;;;;;6247285;23;20567;-95
2021/01/22 15:48:57;;;;;;;13.47;3.20;;;7.40;99.90;;;;;;6247603;23;20177;-93
2021/01/22 15:51:25;;;;;;;12.87;2.97;;;7.20;99.90;;;;;;6248571;23;20169;-92
2021/01/22 15:56:48;;;;;;;8.07;3.43;;;7.00;99.90;;;;;;6220449;22;20233;-92
2021/01/22 18:10:21;;;;;;;13.77;7.20;;;5.40;99.90;;;;;;6242761;22;20209;-86
2021/01/22 18:46:59;;;;;;;25.30;8.53;;;5.20;99.90;;;;;;6243171;23;20201;-85
2021/01/22 18:49:37;;;;;;;14.73;8.57;;;5.20;99.90;;;;;;6241012;23;20158;-85
2021/01/22 18:52:18;;;;;;;17.47;8.53;;;5.30;99.90;;;;;;6215666;23;20182;-85
2021/01/22 18:57:22;;;;;;;19.37;7.47;;;5.40;99.90;;;;;;6271254;23;20177;-85
2021/01/22 18:59:55;;;;;;;26.27;7.17;;;5.40;99.90;;;;;;6272640;23;20185;-85
2021/01/22 19:03:04;;;;;;;27.93;7.40;;;5.30;99.90;;;;;;6315583;22;20258;-85
2021/01/22 19:09:01;;;;;;;23.17;7.27;;;5.10;99.90;;;;;;6333780;22;20188;-86
2021/01/22 19:17:03;;;;;;;25.40;6.70;;;4.90;99.90;;;;;;6298299;22;20238;-86
2021/01/22 19:19:51;;;;;;;17.67;6.60;;;4.90;99.90;;;;;;6290856;22;20948;-85
2021/01/22 19:31:18;;;;;;;17.23;6.30;;;4.90;99.90;;;;;;6271494;23;20180;-85
2021/01/22 19:39:03;;;;;;;14.77;6.90;;;4.90;99.90;;;;;;6238035;22;20213;-85
2021/01/22 19:41:40;;;;;;;10.70;5.77;;;4.80;99.90;;;;;;6234528;22;20205;-85
2021/01/22 19:44:34;;;;;;;16.80;6.03;;;4.80;99.90;;;;;;6206929;23;20198;-85
2021/01/22 19:47:07;;;;;;;11.67;6.13;;;4.90;99.90;;;;;;6208406;23;20202;-85
2021/01/22 19:50:01;;;;;;;15.37;6.47;;;4.80;99.90;;;;;;6160384;23;20175;-85
2021/01/22 20:01:52;;;;;;;22.27;8.50;;;4.80;99.90;;;;;;6263104;22;20213;-84
2021/01/22 20:07:21;;;;;;;16.20;8.90;;;4.60;99.90;;;;;;6235282;22;20431;31
2021/01/22 20:09:54;;;;;;;18.90;8.37;;;4.60;99.90;;;;;;6193767;23;20436;-85
2021/01/22 20:12:27;;;;;;;15.87;8.70;;;4.60;99.90;;;;;;6208395;23;20413;-85
2021/01/22 20:17:53;;;;;;;15.63;7.27;;;4.60;99.90;;;;;;6209530;23;20409;-86
2021/01/22 20:20:49;;;;;;;20.03;8.00;;;4.70;99.90;;;;;;6210327;23;20477;-86
2021/01/22 20:23:21;;;;;;;18.43;8.07;;;4.70;99.90;;;;;;6230718;22;20455;-85
2021/01/22 20:26:28;;;;;;;15.90;7.63;;;4.60;99.90;;;;;;6272249;22;20423;-85
2021/01/22 20:37:43;;;;;;;13.23;8.13;;;4.50;99.90;;;;;;6265130;22;20201;-86
2021/01/22 20:40:17;;;;;;;12.27;8.37;;;4.50;99.90;;;;;;6224786;22;20431;-85
2021/01/22 21:07:29;;;;;;;13.83;6.50;;;4.60;99.90;;;;;;6290684;22;20444;-85
2021/01/22 21:18:09;;;;;;;13.63;7.23;;;4.50;99.90;;;;;;6240922;23;20519;-85
2021/01/22 21:21:05;;;;;;;13.87;7.40;;;4.50;99.90;;;;;;6239435;23;20182;-85
2021/01/22 21:23:41;;;;;;;11.33;7.13;;;4.50;99.90;;;;;;6238791;23;20404;-85
2021/01/22 21:26:26;;;;;;;11.83;7.10;;;4.60;99.90;;;;;;6208936;23;20444;-85
2021/01/22 21:29:10;;;;;;;11.00;6.83;;;4.60;99.90;;;;;;6208289;23;20412;-85
2021/01/22 21:31:39;;;;;;;16.93;7.77;;;4.60;99.90;;;;;;6209510;23;20413;-85
2021/01/22 21:34:36;;;;;;;9.87;6.90;;;4.50;99.90;;;;;;6208888;23;20901;-85
2021/01/22 21:39:50;;;;;;;11.90;6.80;;;4.50;99.90;;;;;;6267735;22;20458;-85
2021/01/22 21:42:18;;;;;;;14.00;7.10;;;4.60;99.90;;;;;;6267180;23;20482;-85
2021/01/22 21:44:49;;;;;;;10.70;7.23;;;4.60;99.90;;;;;;6285361;22;20434;-85
2021/01/22 21:47:22;;;;;;;13.20;7.47;;;4.50;99.90;;;;;;6300740;22;20433;-86
2021/01/22 21:49:53;;;;;;;9.83;7.23;;;4.30;99.90;;;;;;6303739;22;20406;-85
2021/01/22 21:52:24;;;;;;;12.67;8.23;;;4.40;99.90;;;;;;6300931;22;20406;-85
2021/01/22 21:54:59;;;;;;;16.80;8.23;;;4.40;99.90;;;;;;6302269;22;20414;-83
2021/01/22 21:57:32;;;;;;;11.43;8.00;;;4.60;99.90;;;;;;6303678;22;20410;-85
2021/01/22 22:03:34;;;;;;;11.43;7.50;;;4.50;99.90;;;;;;6274715;22;20372;-85
2021/01/22 22:12:14;;;;;;;11.90;7.87;;;4.20;99.90;;;;;;6274131;22;20415;-85
2021/01/22 22:17:47;;;;;;;14.70;8.50;;;4.20;99.90;;;;;;6269051;22;20476;-86
2021/01/22 22:23:30;;;;;;;13.07;8.50;;;4.10;99.90;;;;;;6335578;22;20512;-85
2021/01/22 22:26:10;;;;;;;15.70;9.60;;;4.10;99.90;;;;;;6304466;22;20404;-84
2021/01/22 22:28:44;;;;;;;14.27;8.80;;;4.20;99.90;;;;;;6275072;22;20185;-85
2021/01/22 22:34:00;;;;;;;18.20;9.57;;;4.10;99.90;;;;;;6301764;22;20418;-85
2021/01/22 22:36:35;;;;;;;17.83;9.40;;;4.30;99.90;;;;;;6303994;22;20428;-84
2021/01/22 22:39:19;;;;;;;13.03;8.93;;;4.30;99.90;;;;;;6302970;22;20417;-84
2021/01/22 22:41:52;;;;;;;17.40;9.57;;;4.20;99.90;;;;;;6256086;22;20450;-83
2021/01/22 22:44:37;;;;;;;12.80;8.90;;;4.20;99.90;;;;;;6284364;22;20436;-85
2021/01/22 22:49:55;;;;;;;17.00;9.87;;;4.10;99.90;;;;;;6300134;22;20399;-85
2021/01/22 22:52:27;;;;;;;14.93;9.90;;;4.20;99.90;;;;;;6300517;22;20398;-84
2021/01/22 22:55:04;;;;;;;14.53;10.00;;;4.10;99.90;;;;;;6276857;22;20455;-85
2021/01/22 22:57:44;;;;;;;14.40;9.37;;;4.30;99.90;;;;;;6264246;23;20433;-85
2021/01/22 23:03:11;;;;;;;15.77;8.93;;;4.20;99.90;;;;;;6290862;22;20458;-85
2021/01/22 23:06:04;;;;;;;11.23;8.90;;;4.30;99.90;;;;;;6269129;22;20506;-85
2021/01/22 23:14:14;;;;;;;17.03;9.40;;;4.20;99.90;;;;;;6272390;22;20427;-85
2021/01/22 23:16:55;;;;;;;13.73;8.80;;;4.30;99.90;;;;;;6272029;23;20430;-85
2021/01/22 23:19:34;;;;;;;8.47;7.53;;;4.40;99.90;;;;;;6270543;23;20426;-85
2021/01/22 23:22:04;;;;;;;10.83;7.23;;;4.50;99.90;;;;;;6270842;23;20407;-85
2021/01/22 23:27:24;;;;;;;11.53;7.80;;;4.40;99.90;;;;;;6273428;22;20474;-85
2021/01/22 23:29:54;;;;;;;10.07;6.70;;;4.60;99.90;;;;;;6270837;23;20867;-85
2021/01/22 23:32:36;;;;;;;12.50;7.20;;;4.70;99.90;;;;;;6270985;23;20398;-85
2021/01/22 23:35:13;;;;;;;7.70;6.77;;;4.70;99.90;;;;;;6271418;22;20422;-85
2021/01/22 23:38:07;;;;;;;8.60;6.67;;;4.70;99.90;;;;;;6272291;23;20407;-84
2021/01/22 23:40:43;;;;;;;10.90;6.47;;;4.60;99.90;;;;;;6270765;22;20526;-86
2021/01/22 23:43:18;;;;;;;13.77;8.20;;;4.70;99.90;;;;;;6244238;23;20419;-86
2021/01/22 23:45:58;;;;;;;11.63;6.93;;;4.70;99.90;;;;;;6268602;22;20438;-86
2021/01/22 23:48:28;;;;;;;10.83;6.73;;;4.80;99.90;;;;;;6269872;23;20410;-86
2021/01/22 23:51:10;;;;;;;8.47;6.63;;;4.70;99.90;;;;;;6264319;23;20429;-86
2021/01/22 23:53:41;;;;;;;11.93;7.23;;;4.70;99.90;;;;;;6267731;22;20415;-86
2021/01/22 23:58:57;;;;;;;11.87;7.33;;;4.70;99.90;;;;;;6268516;23;20383;-86
